Pemberton, Canada
Current Conditions -  °F | °C
As of 6:00 PM on Wednesday 22 Oct 2014 (Local Time) from CWAE Reporting Station
Light Rain Light Rain  
Wind Chill: 48°   Ceiling: 2000
Heat Index: 48°   Visibility: 15mi
Dew Point: 46°   Wind: 2mph
Humidity: 93%   Direction: 180°S
Pressure: 29.52"   Gusts: NA
Location:  50.32°N, 122.8°W
Report Text: CWAE 230100Z 18002KT 15SM -RA OVC020 09/08 A2952 RMK SC8 LAST OBS/NEXT 231300UTC WND ESTD SLP002 DENSITY ALT 2300FT
Loading
Personal Weather Stations






























Interactive Weather Map
Tropical Storm Tracking
New forecast layout! Learn more

10-Day Weather Forecast

Advertisements
Track Severe Weather on mobile